sensor_id;sensor_type;location;lat;lon;timestamp;pressure;altitude;pressure_sealevel;temperature;humidity
63554;BME280;49699;48.072;7.800;2022-08-19T00:01:53;99104.38;;;20.16;81.87
63554;BME280;49699;48.072;7.800;2022-08-19T00:04:22;99098.41;;;20.14;81.88
63554;BME280;49699;48.072;7.800;2022-08-19T00:06:50;99097.44;;;20.15;81.68
63554;BME280;49699;48.072;7.800;2022-08-19T00:09:18;99094.63;;;20.17;81.70
63554;BME280;49699;48.072;7.800;2022-08-19T00:11:44;99092.00;;;20.17;81.45
63554;BME280;49699;48.072;7.800;2022-08-19T00:14:12;99084.88;;;20.17;81.35
63554;BME280;49699;48.072;7.800;2022-08-19T00:16:39;99089.50;;;20.15;81.39
63554;BME280;49699;48.072;7.800;2022-08-19T00:19:07;99094.25;;;20.11;81.64
63554;BME280;49699;48.072;7.800;2022-08-19T00:21:32;99095.09;;;20.12;81.52
63554;BME280;49699;48.072;7.800;2022-08-19T00:23:57;99088.97;;;20.11;81.69
63554;BME280;49699;48.072;7.800;2022-08-19T00:26:24;99091.63;;;20.11;81.64
63554;BME280;49699;48.072;7.800;2022-08-19T00:28:50;99096.22;;;20.09;81.75
63554;BME280;49699;48.072;7.800;2022-08-19T00:31:15;99096.53;;;20.06;81.60
63554;BME280;49699;48.072;7.800;2022-08-19T00:33:41;99094.09;;;20.05;81.70
63554;BME280;49699;48.072;7.800;2022-08-19T00:36:07;99089.09;;;20.02;81.88
63554;BME280;49699;48.072;7.800;2022-08-19T00:38:34;99090.91;;;20.01;81.88
63554;BME280;49699;48.072;7.800;2022-08-19T00:41:00;99094.25;;;20.03;81.76
63554;BME280;49699;48.072;7.800;2022-08-19T00:43:26;99101.34;;;20.03;81.75
63554;BME280;49699;48.072;7.800;2022-08-19T00:45:52;99101.34;;;20.03;81.55
63554;BME280;49699;48.072;7.800;2022-08-19T00:48:19;99098.69;;;20.03;81.59
63554;BME280;49699;48.072;7.800;2022-08-19T00:50:47;99098.38;;;20.06;81.28
63554;BME280;49699;48.072;7.800;2022-08-19T00:53:15;99104.47;;;20.06;81.09
63554;BME280;49699;48.072;7.800;2022-08-19T00:55:45;99098.19;;;20.07;81.03
63554;BME280;49699;48.072;7.800;2022-08-19T00:58:14;99094.72;;;20.07;80.91
63554;BME280;49699;48.072;7.800;2022-08-19T01:00:40;99092.28;;;20.05;80.86
63554;BME280;49699;48.072;7.800;2022-08-19T01:03:19;99095.06;;;20.04;80.93
63554;BME280;49699;48.072;7.800;2022-08-19T01:05:47;99084.81;;;20.01;80.93
63554;BME280;49699;48.072;7.800;2022-08-19T01:08:14;99084.28;;;19.97;80.84
63554;BME280;49699;48.072;7.800;2022-08-19T01:10:43;99087.09;;;19.96;81.00
63554;BME280;49699;48.072;7.800;2022-08-19T01:13:10;99088.91;;;19.95;80.90
63554;BME280;49699;48.072;7.800;2022-08-19T01:15:47;99094.19;;;19.95;80.88
63554;BME280;49699;48.072;7.800;2022-08-19T01:18:17;99087.38;;;19.93;80.84
63554;BME280;49699;48.072;7.800;2022-08-19T01:20:43;99082.94;;;19.93;80.86
63554;BME280;49699;48.072;7.800;2022-08-19T01:23:09;99085.56;;;19.93;80.83
63554;BME280;49699;48.072;7.800;2022-08-19T01:25:42;99077.81;;;19.92;80.83
63554;BME280;49699;48.072;7.800;2022-08-19T01:28:16;99091.69;;;19.94;80.59
63554;BME280;49699;48.072;7.800;2022-08-19T01:30:43;99086.41;;;19.94;80.55
63554;BME280;49699;48.072;7.800;2022-08-19T01:33:09;99089.88;;;19.94;80.62
63554;BME280;49699;48.072;7.800;2022-08-19T01:35:35;99083.75;;;19.94;80.59
63554;BME280;49699;48.072;7.800;2022-08-19T01:38:04;99089.19;;;19.92;80.59
63554;BME280;49699;48.072;7.800;2022-08-19T01:40:35;99079.78;;;19.90;80.72
63554;BME280;49699;48.072;7.800;2022-08-19T01:43:02;99080.75;;;19.89;80.80
63554;BME280;49699;48.072;7.800;2022-08-19T01:45:31;99082.91;;;19.85;80.84
63554;BME280;49699;48.072;7.800;2022-08-19T01:47:59;99080.25;;;19.85;81.05
63554;BME280;49699;48.072;7.800;2022-08-19T01:50:25;99071.19;;;19.88;80.73
63554;BME280;49699;48.072;7.800;2022-08-19T01:52:51;99073.66;;;19.89;80.83
63554;BME280;49699;48.072;7.800;2022-08-19T01:55:19;99071.19;;;19.88;80.61
63554;BME280;49699;48.072;7.800;2022-08-19T01:57:49;99070.19;;;19.89;80.84
63554;BME280;49699;48.072;7.800;2022-08-19T02:00:17;99066.75;;;19.88;80.61
63554;BME280;49699;48.072;7.800;2022-08-19T02:02:43;99069.22;;;19.90;80.64
63554;BME280;49699;48.072;7.800;2022-08-19T02:05:09;99063.28;;;19.88;80.64
63554;BME280;49699;48.072;7.800;2022-08-19T02:07:35;99059.63;;;19.89;80.66
63554;BME280;49699;48.072;7.800;2022-08-19T02:10:17;99061.63;;;19.87;80.54
63554;BME280;49699;48.072;7.800;2022-08-19T02:12:43;99069.53;;;19.87;80.59
63554;BME280;49699;48.072;7.800;2022-08-19T02:15:09;99064.41;;;19.85;80.48
63554;BME280;49699;48.072;7.800;2022-08-19T02:17:34;99060.13;;;19.84;80.68
63554;BME280;49699;48.072;7.800;2022-08-19T02:20:00;99063.91;;;19.82;80.54
63554;BME280;49699;48.072;7.800;2022-08-19T02:22:25;99057.09;;;19.79;80.70
63554;BME280;49699;48.072;7.800;2022-08-19T02:24:52;99049.34;;;19.77;80.64
63554;BME280;49699;48.072;7.800;2022-08-19T02:27:18;99050.00;;;19.80;80.63
63554;BME280;49699;48.072;7.800;2022-08-19T02:29:46;99057.94;;;19.80;80.48
63554;BME280;49699;48.072;7.800;2022-08-19T02:32:11;99059.91;;;19.77;80.66
63554;BME280;49699;48.072;7.800;2022-08-19T02:34:37;99059.22;;;19.75;80.52
63554;BME280;49699;48.072;7.800;2022-08-19T02:37:02;99055.22;;;19.71;80.77
63554;BME280;49699;48.072;7.800;2022-08-19T02:39:28;99049.47;;;19.68;80.66
63554;BME280;49699;48.072;7.800;2022-08-19T02:41:53;99048.63;;;19.67;80.66
63554;BME280;49699;48.072;7.800;2022-08-19T02:44:18;99055.72;;;19.67;80.35
63554;BME280;49699;48.072;7.800;2022-08-19T02:46:47;99050.59;;;19.65;80.68
63554;BME280;49699;48.072;7.800;2022-08-19T02:49:15;99058.81;;;19.62;80.83
63554;BME280;49699;48.072;7.800;2022-08-19T02:51:42;99057.63;;;19.57;81.01
63554;BME280;49699;48.072;7.800;2022-08-19T02:54:10;99066.03;;;19.52;81.13
63554;BME280;49699;48.072;7.800;2022-08-19T02:56:38;99062.00;;;19.48;81.38
63554;BME280;49699;48.072;7.800;2022-08-19T02:59:04;99062.28;;;19.45;81.50
63554;BME280;49699;48.072;7.800;2022-08-19T03:01:34;99064.41;;;19.41;81.61
63554;BME280;49699;48.072;7.800;2022-08-19T03:04:02;99058.59;;;19.38;81.81
63554;BME280;49699;48.072;7.800;2022-08-19T03:06:28;99064.50;;;19.32;81.90
63554;BME280;49699;48.072;7.800;2022-08-19T03:08:54;99063.16;;;19.28;82.14
63554;BME280;49699;48.072;7.800;2022-08-19T03:11:26;99071.38;;;19.25;82.14
63554;BME280;49699;48.072;7.800;2022-08-19T03:13:53;99079.13;;;19.26;82.21
63554;BME280;49699;48.072;7.800;2022-08-19T03:16:24;99078.16;;;19.27;82.18
63554;BME280;49699;48.072;7.800;2022-08-19T03:18:50;99091.19;;;19.29;82.08
63554;BME280;49699;48.072;7.800;2022-08-19T03:21:17;99084.56;;;19.25;82.31
63554;BME280;49699;48.072;7.800;2022-08-19T03:23:43;99092.75;;;19.22;82.31
63554;BME280;49699;48.072;7.800;2022-08-19T03:26:09;99098.03;;;19.22;82.42
63554;BME280;49699;48.072;7.800;2022-08-19T03:28:34;99102.19;;;19.24;82.29
63554;BME280;49699;48.072;7.800;2022-08-19T03:31:09;99093.44;;;19.24;82.43
63554;BME280;49699;48.072;7.800;2022-08-19T03:33:35;99089.16;;;19.23;82.37
63554;BME280;49699;48.072;7.800;2022-08-19T03:36:05;99096.22;;;19.22;82.56
63554;BME280;49699;48.072;7.800;2022-08-19T03:38:32;99086.97;;;19.18;82.86
63554;BME280;49699;48.072;7.800;2022-08-19T03:41:02;99096.19;;;19.14;82.83
63554;BME280;49699;48.072;7.800;2022-08-19T03:43:27;99096.19;;;19.14;83.07
63554;BME280;49699;48.072;7.800;2022-08-19T03:46:05;99106.41;;;19.17;82.84
63554;BME280;49699;48.072;7.800;2022-08-19T03:48:33;99106.94;;;19.21;82.79
63554;BME280;49699;48.072;7.800;2022-08-19T03:50:58;99101.50;;;19.22;82.70
63554;BME280;49699;48.072;7.800;2022-08-19T03:53:28;99109.13;;;19.25;82.67
63554;BME280;49699;48.072;7.800;2022-08-19T03:55:55;99108.16;;;19.26;82.72
63554;BME280;49699;48.072;7.800;2022-08-19T03:58:21;99108.16;;;19.26;82.70
63554;BME280;49699;48.072;7.800;2022-08-19T04:00:46;99114.25;;;19.27;82.74
63554;BME280;49699;48.072;7.800;2022-08-19T04:03:12;99121.03;;;19.29;82.84
63554;BME280;49699;48.072;7.800;2022-08-19T04:05:37;99121.72;;;19.31;82.53
63554;BME280;49699;48.072;7.800;2022-08-19T04:08:04;99125.88;;;19.34;82.58
63554;BME280;49699;48.072;7.800;2022-08-19T04:10:35;99120.41;;;19.35;82.41
63554;BME280;49699;48.072;7.800;2022-08-19T04:13:01;99125.53;;;19.37;82.31
63554;BME280;49699;48.072;7.800;2022-08-19T04:15:27;99125.41;;;19.38;82.29
63554;BME280;49699;48.072;7.800;2022-08-19T04:17:58;99126.09;;;19.40;82.19
63554;BME280;49699;48.072;7.800;2022-08-19T04:20:24;99124.94;;;19.43;82.07
63554;BME280;49699;48.072;7.800;2022-08-19T04:22:49;99124.94;;;19.43;82.15
63554;BME280;49699;48.072;7.800;2022-08-19T04:25:14;99119.13;;;19.39;82.19
63554;BME280;49699;48.072;7.800;2022-08-19T04:27:40;99129.00;;;19.37;82.33
63554;BME280;49699;48.072;7.800;2022-08-19T04:30:08;99123.88;;;19.36;82.55
63554;BME280;49699;48.072;7.800;2022-08-19T04:32:34;99114.09;;;19.28;82.68
63554;BME280;49699;48.072;7.800;2022-08-19T04:35:00;99122.47;;;19.24;83.06
63554;BME280;49699;48.072;7.800;2022-08-19T04:37:26;99121.25;;;19.18;83.29
63554;BME280;49699;48.072;7.800;2022-08-19T04:39:52;99121.72;;;19.14;83.51
63554;BME280;49699;48.072;7.800;2022-08-19T04:42:36;99119.09;;;19.14;83.53
63554;BME280;49699;48.072;7.800;2022-08-19T04:45:06;99120.41;;;19.18;83.56
63554;BME280;49699;48.072;7.800;2022-08-19T04:47:32;99117.50;;;19.21;83.42
63554;BME280;49699;48.072;7.800;2022-08-19T04:49:58;99113.56;;;19.25;83.13
63554;BME280;49699;48.072;7.800;2022-08-19T04:52:23;99121.88;;;19.30;83.14
63554;BME280;49699;48.072;7.800;2022-08-19T04:54:49;99128.81;;;19.31;82.94
63554;BME280;49699;48.072;7.800;2022-08-19T04:57:14;99136.44;;;19.34;82.92
63554;BME280;49699;48.072;7.800;2022-08-19T04:59:40;99137.25;;;19.34;83.03
63554;BME280;49699;48.072;7.800;2022-08-19T05:02:08;99139.06;;;19.34;83.00
63554;BME280;49699;48.072;7.800;2022-08-19T05:04:33;99142.22;;;19.37;82.86
63554;BME280;49699;48.072;7.800;2022-08-19T05:07:00;99149.00;;;19.40;82.81
63554;BME280;49699;48.072;7.800;2022-08-19T05:09:26;99153.00;;;19.44;82.54
63554;BME280;49699;48.072;7.800;2022-08-19T05:11:51;99158.81;;;19.48;82.51
63554;BME280;49699;48.072;7.800;2022-08-19T05:14:18;99156.88;;;19.50;82.42
63554;BME280;49699;48.072;7.800;2022-08-19T05:16:44;99157.38;;;19.53;82.29
63554;BME280;49699;48.072;7.800;2022-08-19T05:19:10;99159.06;;;19.54;82.21
63554;BME280;49699;48.072;7.800;2022-08-19T05:21:54;99166.53;;;19.59;82.09
63554;BME280;49699;48.072;7.800;2022-08-19T05:24:37;99163.72;;;19.60;81.99
63554;BME280;49699;48.072;7.800;2022-08-19T05:27:04;99165.25;;;19.63;82.12
63554;BME280;49699;48.072;7.800;2022-08-19T05:29:31;99158.97;;;19.64;81.97
63554;BME280;49699;48.072;7.800;2022-08-19T05:31:57;99161.31;;;19.67;81.82
63554;BME280;49699;48.072;7.800;2022-08-19T05:34:24;99170.06;;;19.67;81.90
63554;BME280;49699;48.072;7.800;2022-08-19T05:36:55;99164.66;;;19.69;81.78
63554;BME280;49699;48.072;7.800;2022-08-19T05:39:24;99162.50;;;19.72;81.79
63554;BME280;49699;48.072;7.800;2022-08-19T05:42:05;99170.13;;;19.75;81.58
63554;BME280;49699;48.072;7.800;2022-08-19T05:44:34;99168.31;;;19.76;81.65
63554;BME280;49699;48.072;7.800;2022-08-19T05:47:01;99170.94;;;19.76;81.58
63554;BME280;49699;48.072;7.800;2022-08-19T05:49:28;99172.63;;;19.77;81.64
63554;BME280;49699;48.072;7.800;2022-08-19T05:51:54;99173.59;;;19.76;81.83
63554;BME280;49699;48.072;7.800;2022-08-19T05:54:21;99175.25;;;19.77;81.81
63554;BME280;49699;48.072;7.800;2022-08-19T05:56:48;99172.63;;;19.77;81.74
63554;BME280;49699;48.072;7.800;2022-08-19T05:59:15;99168.00;;;19.79;81.78
63554;BME280;49699;48.072;7.800;2022-08-19T06:01:43;99181.06;;;19.81;81.51
63554;BME280;49699;48.072;7.800;2022-08-19T06:04:09;99180.75;;;19.84;81.41
63554;BME280;49699;48.072;7.800;2022-08-19T06:06:35;99191.03;;;19.87;81.20
63554;BME280;49699;48.072;7.800;2022-08-19T06:09:03;99186.41;;;19.89;81.33
63554;BME280;49699;48.072;7.800;2022-08-19T06:11:36;99192.34;;;19.91;81.08
63554;BME280;49699;48.072;7.800;2022-08-19T06:14:08;99197.50;;;19.92;81.12
63554;BME280;49699;48.072;7.800;2022-08-19T06:16:35;99206.38;;;19.91;81.01
63554;BME280;49699;48.072;7.800;2022-08-19T06:19:03;99203.75;;;19.91;81.01
63554;BME280;49699;48.072;7.800;2022-08-19T06:21:32;99200.13;;;19.92;81.03
63554;BME280;49699;48.072;7.800;2022-08-19T06:23:58;99200.13;;;19.92;80.92
63554;BME280;49699;48.072;7.800;2022-08-19T06:26:24;99202.63;;;19.94;80.97
63554;BME280;49699;48.072;7.800;2022-08-19T06:28:52;99199.00;;;19.95;80.82
63554;BME280;49699;48.072;7.800;2022-08-19T06:31:21;99209.25;;;19.98;80.82
63554;BME280;49699;48.072;7.800;2022-08-19T06:33:48;99203.97;;;19.98;80.76
63554;BME280;49699;48.072;7.800;2022-08-19T06:36:24;99207.59;;;19.97;80.89
63554;BME280;49699;48.072;7.800;2022-08-19T06:38:58;99210.25;;;19.97;80.79
63554;BME280;49699;48.072;7.800;2022-08-19T06:41:25;99215.22;;;20.00;80.68
63554;BME280;49699;48.072;7.800;2022-08-19T06:43:51;99218.53;;;20.02;80.71
63554;BME280;49699;48.072;7.800;2022-08-19T06:46:17;99223.53;;;20.05;80.63
63554;BME280;49699;48.072;7.800;2022-08-19T06:48:43;99225.19;;;20.06;80.39
63554;BME280;49699;48.072;7.800;2022-08-19T06:51:09;99227.50;;;20.09;80.38
63554;BME280;49699;48.072;7.800;2022-08-19T06:53:34;99222.06;;;20.10;80.25
63554;BME280;49699;48.072;7.800;2022-08-19T06:56:00;99214.66;;;20.14;80.27
63554;BME280;49699;48.072;7.800;2022-08-19T06:58:30;99213.69;;;20.15;80.12
63554;BME280;49699;48.072;7.800;2022-08-19T07:01:03;99213.69;;;20.15;80.33
63554;BME280;49699;48.072;7.800;2022-08-19T07:03:34;99219.78;;;20.16;80.16
63554;BME280;49699;48.072;7.800;2022-08-19T07:06:08;99216.31;;;20.15;80.13
63554;BME280;49699;48.072;7.800;2022-08-19T07:08:35;99211.03;;;20.15;80.02
63554;BME280;49699;48.072;7.800;2022-08-19T07:11:05;99212.41;;;20.19;80.18
63554;BME280;49699;48.072;7.800;2022-08-19T07:13:32;99209.44;;;20.22;79.91
63554;BME280;49699;48.072;7.800;2022-08-19T07:16:11;99211.59;;;20.27;79.50
63554;BME280;49699;48.072;7.800;2022-08-19T07:18:37;99205.19;;;20.29;79.74
63554;BME280;49699;48.072;7.800;2022-08-19T07:21:05;99212.13;;;20.30;79.60
63554;BME280;49699;48.072;7.800;2022-08-19T07:23:31;99209.47;;;20.30;79.67
63554;BME280;49699;48.072;7.800;2022-08-19T07:25:56;99210.00;;;20.34;79.69
63554;BME280;49699;48.072;7.800;2022-08-19T07:28:22;99207.78;;;20.39;79.58
63554;BME280;49699;48.072;7.800;2022-08-19T07:30:48;99210.44;;;20.47;79.36
63554;BME280;49699;48.072;7.800;2022-08-19T07:33:14;99216.78;;;20.54;78.99
63554;BME280;49699;48.072;7.800;2022-08-19T07:35:40;99216.94;;;20.61;79.07
63554;BME280;49699;48.072;7.800;2022-08-19T07:38:05;99211.03;;;20.67;78.76
63554;BME280;49699;48.072;7.800;2022-08-19T07:40:31;99208.59;;;20.73;78.35
63554;BME280;49699;48.072;7.800;2022-08-19T07:42:56;99214.75;;;20.82;78.20
63554;BME280;49699;48.072;7.800;2022-08-19T07:45:22;99224.53;;;20.90;78.15
63554;BME280;49699;48.072;7.800;2022-08-19T07:47:47;99224.91;;;20.95;78.04
63554;BME280;49699;48.072;7.800;2022-08-19T07:50:13;99217.47;;;20.98;77.94
63554;BME280;49699;48.072;7.800;2022-08-19T07:52:39;99215.47;;;21.00;77.99
63554;BME280;49699;48.072;7.800;2022-08-19T07:55:06;99213.34;;;21.04;77.77
63554;BME280;49699;48.072;7.800;2022-08-19T07:57:32;99215.16;;;21.03;77.81
63554;BME280;49699;48.072;7.800;2022-08-19T07:59:58;99217.66;;;21.05;77.80
63554;BME280;49699;48.072;7.800;2022-08-19T08:02:24;99220.97;;;21.07;77.96
63554;BME280;49699;48.072;7.800;2022-08-19T08:04:49;99216.34;;;21.09;77.81
63554;BME280;49699;48.072;7.800;2022-08-19T08:07:33;99223.81;;;21.13;77.66
63554;BME280;49699;48.072;7.800;2022-08-19T08:10:17;99216.38;;;21.17;77.58
63554;BME280;49699;48.072;7.800;2022-08-19T08:12:43;99223.19;;;21.20;77.43
63554;BME280;49699;48.072;7.800;2022-08-19T08:15:12;99223.19;;;21.20;77.53
63554;BME280;49699;48.072;7.800;2022-08-19T08:17:42;99224.84;;;21.21;77.62
63554;BME280;49699;48.072;7.800;2022-08-19T08:20:08;99236.94;;;21.23;77.44
63554;BME280;49699;48.072;7.800;2022-08-19T08:22:34;99239.59;;;21.23;77.71
63554;BME280;49699;48.072;7.800;2022-08-19T08:25:21;99244.03;;;21.23;77.58
63554;BME280;49699;48.072;7.800;2022-08-19T08:27:48;99249.19;;;21.24;77.64
63554;BME280;49699;48.072;7.800;2022-08-19T08:30:17;99259.59;;;21.26;77.70
63554;BME280;49699;48.072;7.800;2022-08-19T08:32:43;99260.28;;;21.28;77.57
63554;BME280;49699;48.072;7.800;2022-08-19T08:35:13;99258.94;;;21.32;77.37
63554;BME280;49699;48.072;7.800;2022-08-19T08:37:38;99257.66;;;21.36;77.34
63554;BME280;49699;48.072;7.800;2022-08-19T08:40:09;99257.31;;;21.39;77.20
63554;BME280;49699;48.072;7.800;2022-08-19T08:42:48;99262.13;;;21.43;77.01
63554;BME280;49699;48.072;7.800;2022-08-19T08:45:17;99264.31;;;21.48;76.87
63554;BME280;49699;48.072;7.800;2022-08-19T08:47:45;99268.28;;;21.52;76.71
63554;BME280;49699;48.072;7.800;2022-08-19T08:50:21;99263.16;;;21.59;76.61
63554;BME280;49699;48.072;7.800;2022-08-19T08:52:52;99263.50;;;21.64;76.23
63554;BME280;49699;48.072;7.800;2022-08-19T08:55:28;99273.44;;;21.70;76.24
63554;BME280;49699;48.072;7.800;2022-08-19T08:58:01;99270.63;;;21.71;76.26
63554;BME280;49699;48.072;7.800;2022-08-19T09:00:40;99276.44;;;21.75;75.99
63554;BME280;49699;48.072;7.800;2022-08-19T09:03:16;99279.09;;;21.75;76.12
63554;BME280;49699;48.072;7.800;2022-08-19T09:11:10;99285.38;;;21.74;76.16
63554;BME280;49699;48.072;7.800;2022-08-19T09:13:44;99292.16;;;21.76;76.04
63554;BME280;49699;48.072;7.800;2022-08-19T09:16:18;99297.66;;;21.83;76.02
63554;BME280;49699;48.072;7.800;2022-08-19T09:18:51;99292.00;;;21.86;75.74
63554;BME280;49699;48.072;7.800;2022-08-19T09:21:19;99290.53;;;21.92;75.46
63554;BME280;49699;48.072;7.800;2022-08-19T09:23:45;99293.53;;;21.97;75.38
63554;BME280;49699;48.072;7.800;2022-08-19T09:26:13;99294.19;;;21.99;75.35
63554;BME280;49699;48.072;7.800;2022-08-19T09:28:40;99297.66;;;21.99;75.12
63554;BME280;49699;48.072;7.800;2022-08-19T09:31:14;99302.00;;;22.00;74.86
63554;BME280;49699;48.072;7.800;2022-08-19T09:33:40;99297.53;;;22.01;74.81
63554;BME280;49699;48.072;7.800;2022-08-19T09:36:13;99305.81;;;22.06;74.70
63554;BME280;49699;48.072;7.800;2022-08-19T09:38:39;99302.34;;;22.13;74.49
63554;BME280;49699;48.072;7.800;2022-08-19T09:41:12;99303.34;;;22.21;74.26
63554;BME280;49699;48.072;7.800;2022-08-19T09:43:40;99309.13;;;22.24;74.13
63554;BME280;49699;48.072;7.800;2022-08-19T09:46:08;99311.94;;;22.23;74.10
63554;BME280;49699;48.072;7.800;2022-08-19T09:48:39;99308.81;;;22.19;74.05
63554;BME280;49699;48.072;7.800;2022-08-19T09:51:16;99317.59;;;22.20;74.29
63554;BME280;49699;48.072;7.800;2022-08-19T09:53:44;99310.81;;;22.17;73.82
63554;BME280;49699;48.072;7.800;2022-08-19T09:56:11;99313.44;;;22.17;73.92
63554;BME280;49699;48.072;7.800;2022-08-19T09:58:39;99322.06;;;22.19;73.80
63554;BME280;49699;48.072;7.800;2022-08-19T10:01:08;99323.53;;;22.22;73.58
63554;BME280;49699;48.072;7.800;2022-08-19T10:03:35;99317.06;;;22.24;73.23
63554;BME280;49699;48.072;7.800;2022-08-19T10:06:03;99318.75;;;22.25;73.13
63554;BME280;49699;48.072;7.800;2022-08-19T10:08:35;99312.44;;;22.26;73.15
63554;BME280;49699;48.072;7.800;2022-08-19T10:11:03;99309.97;;;22.33;72.94
63554;BME280;49699;48.072;7.800;2022-08-19T10:13:30;99308.78;;;22.43;72.49
63554;BME280;49699;48.072;7.800;2022-08-19T10:16:06;99322.88;;;22.52;72.23
63554;BME280;49699;48.072;7.800;2022-08-19T10:18:33;99310.44;;;22.61;71.88
63554;BME280;49699;48.072;7.800;2022-08-19T10:21:05;99315.06;;;22.67;71.52
63554;BME280;49699;48.072;7.800;2022-08-19T10:23:35;99305.28;;;22.67;71.54
63554;BME280;49699;48.072;7.800;2022-08-19T10:26:01;99311.75;;;22.65;71.36
63554;BME280;49699;48.072;7.800;2022-08-19T10:28:28;99306.78;;;22.62;71.35
63554;BME280;49699;48.072;7.800;2022-08-19T10:30:53;99312.91;;;22.62;71.16
63554;BME280;49699;48.072;7.800;2022-08-19T10:33:19;99313.75;;;22.63;71.50
63554;BME280;49699;48.072;7.800;2022-08-19T10:35:44;99314.56;;;22.63;71.14
63554;BME280;49699;48.072;7.800;2022-08-19T10:38:12;99316.88;;;22.58;71.17
63554;BME280;49699;48.072;7.800;2022-08-19T10:40:37;99310.94;;;22.56;71.37
63554;BME280;49699;48.072;7.800;2022-08-19T10:43:03;99306.13;;;22.60;71.18
63554;BME280;49699;48.072;7.800;2022-08-19T10:45:28;99314.56;;;22.63;71.05
63554;BME280;49699;48.072;7.800;2022-08-19T10:47:53;99302.47;;;22.69;71.16
63554;BME280;49699;48.072;7.800;2022-08-19T10:50:19;99302.31;;;22.78;70.67
63554;BME280;49699;48.072;7.800;2022-08-19T10:53:05;99304.44;;;22.83;70.35
63554;BME280;49699;48.072;7.800;2022-08-19T10:55:31;99298.81;;;22.86;70.16
63554;BME280;49699;48.072;7.800;2022-08-19T10:58:18;99304.44;;;22.91;70.11
63554;BME280;49699;48.072;7.800;2022-08-19T11:00:56;99304.25;;;23.01;69.71
63554;BME280;49699;48.072;7.800;2022-08-19T11:03:24;99310.38;;;23.09;69.44
63554;BME280;49699;48.072;7.800;2022-08-19T11:06:00;99304.00;;;23.18;69.20
63554;BME280;49699;48.072;7.800;2022-08-19T11:08:26;99303.00;;;23.28;68.92
63554;BME280;49699;48.072;7.800;2022-08-19T11:10:53;99305.44;;;23.37;68.71
63554;BME280;49699;48.072;7.800;2022-08-19T11:13:27;99302.19;;;23.50;68.23
63554;BME280;49699;48.072;7.800;2022-08-19T11:16:02;99306.84;;;23.56;68.03
63554;BME280;49699;48.072;7.800;2022-08-19T11:18:28;99301.19;;;23.59;67.88
63554;BME280;49699;48.072;7.800;2022-08-19T11:20:53;99297.81;;;23.65;67.69
63554;BME280;49699;48.072;7.800;2022-08-19T11:23:18;99302.13;;;23.66;67.48
63554;BME280;49699;48.072;7.800;2022-08-19T11:25:44;99300.47;;;23.65;67.47
63554;BME280;49699;48.072;7.800;2022-08-19T11:28:11;99298.03;;;23.64;67.42
63554;BME280;49699;48.072;7.800;2022-08-19T11:30:38;99302.50;;;23.63;67.41
63554;BME280;49699;48.072;7.800;2022-08-19T11:33:03;99292.81;;;23.70;67.33
63554;BME280;49699;48.072;7.800;2022-08-19T11:35:28;99299.09;;;23.77;66.92
63554;BME280;49699;48.072;7.800;2022-08-19T11:37:54;99296.91;;;23.81;66.71
63554;BME280;49699;48.072;7.800;2022-08-19T11:40:21;99301.34;;;23.88;66.63
63554;BME280;49699;48.072;7.800;2022-08-19T11:42:46;99294.31;;;23.96;66.17
63554;BME280;49699;48.072;7.800;2022-08-19T11:45:25;99297.34;;;23.93;66.10
63554;BME280;49699;48.072;7.800;2022-08-19T11:47:51;99298.84;;;23.87;66.09
63554;BME280;49699;48.072;7.800;2022-08-19T11:50:17;99287.41;;;23.86;65.87
63554;BME280;49699;48.072;7.800;2022-08-19T11:52:44;99293.19;;;23.90;65.93
63554;BME280;49699;48.072;7.800;2022-08-19T11:55:11;99294.84;;;23.91;65.98
63554;BME280;49699;48.072;7.800;2022-08-19T11:57:36;99291.53;;;23.89;65.79
63554;BME280;49699;48.072;7.800;2022-08-19T12:00:03;99298.84;;;23.87;66.00
63554;BME280;49699;48.072;7.800;2022-08-19T12:02:31;99295.19;;;23.88;65.84
63554;BME280;49699;48.072;7.800;2022-08-19T12:04:56;99295.38;;;23.86;65.61
63554;BME280;49699;48.072;7.800;2022-08-19T12:07:22;99294.53;;;23.86;65.68
63554;BME280;49699;48.072;7.800;2022-08-19T12:09:48;99290.00;;;23.95;65.45
63554;BME280;49699;48.072;7.800;2022-08-19T12:12:13;99299.38;;;24.05;64.99
63554;BME280;49699;48.072;7.800;2022-08-19T12:14:38;99297.50;;;24.14;64.65
63554;BME280;49699;48.072;7.800;2022-08-19T12:17:04;99291.78;;;24.25;64.15
63554;BME280;49699;48.072;7.800;2022-08-19T12:19:32;99289.72;;;24.35;64.00
63554;BME280;49699;48.072;7.800;2022-08-19T12:22:00;99286.63;;;24.46;63.46
63554;BME280;49699;48.072;7.800;2022-08-19T12:24:31;99287.34;;;24.55;63.39
63554;BME280;49699;48.072;7.800;2022-08-19T12:26:58;99292.13;;;24.60;63.26
63554;BME280;49699;48.072;7.800;2022-08-19T12:29:24;99294.63;;;24.61;63.26
63554;BME280;49699;48.072;7.800;2022-08-19T12:31:54;99293.44;;;24.64;63.12
63554;BME280;49699;48.072;7.800;2022-08-19T12:34:23;99292.41;;;24.65;62.80
63554;BME280;49699;48.072;7.800;2022-08-19T12:36:49;99294.78;;;24.60;62.62
63554;BME280;49699;48.072;7.800;2022-08-19T12:39:15;99291.41;;;24.51;62.80
63554;BME280;49699;48.072;7.800;2022-08-19T12:41:40;99291.75;;;24.48;62.93
63554;BME280;49699;48.072;7.800;2022-08-19T12:44:05;99289.56;;;24.51;62.77
63554;BME280;49699;48.072;7.800;2022-08-19T12:46:31;99293.31;;;24.57;62.57
63554;BME280;49699;48.072;7.800;2022-08-19T12:48:56;99288.66;;;24.59;62.27
63554;BME280;49699;48.072;7.800;2022-08-19T12:51:22;99285.72;;;24.54;62.24
63554;BME280;49699;48.072;7.800;2022-08-19T12:53:49;99292.50;;;24.56;62.30
63554;BME280;49699;48.072;7.800;2022-08-19T12:56:14;99288.75;;;24.66;61.90
63554;BME280;49699;48.072;7.800;2022-08-19T12:58:41;99275.81;;;24.77;61.68
63554;BME280;49699;48.072;7.800;2022-08-19T13:01:11;99276.56;;;24.86;61.28
63554;BME280;49699;48.072;7.800;2022-08-19T13:03:38;99274.66;;;24.95;61.03
63554;BME280;49699;48.072;7.800;2022-08-19T13:06:03;99276.41;;;25.02;60.87
63554;BME280;49699;48.072;7.800;2022-08-19T13:08:28;99274.03;;;25.07;60.59
63554;BME280;49699;48.072;7.800;2022-08-19T13:10:54;99273.63;;;25.10;60.64